createdAt,value
2019-04-27T00:00:14.130Z,100646.00
2019-04-27T00:03:06.022Z,100636.00
2019-04-27T00:05:43.888Z,100625.00
2019-04-27T00:08:35.185Z,100629.00
2019-04-27T00:11:08.848Z,100626.00
2019-04-27T00:13:41.688Z,100617.00
2019-04-27T00:16:30.479Z,100624.00
2019-04-27T00:19:13.913Z,100618.00
2019-04-27T00:22:00.487Z,100619.00
2019-04-27T00:24:30.984Z,100615.00
2019-04-27T00:27:03.268Z,100606.00
2019-04-27T00:29:36.583Z,100602.00
2019-04-27T00:32:07.277Z,100607.00
2019-04-27T00:34:38.088Z,100595.00
2019-04-27T00:37:26.070Z,100593.00
2019-04-27T00:40:03.455Z,100594.00
2019-04-27T00:42:35.698Z,100600.00
2019-04-27T00:45:06.597Z,100603.00
2019-04-27T00:47:37.033Z,100590.00
2019-04-27T00:50:07.666Z,100578.00
2019-04-27T00:52:38.200Z,100581.00
2019-04-27T00:55:08.960Z,100573.00
2019-04-27T00:57:58.942Z,100568.00
2019-04-27T01:00:46.950Z,100577.00
2019-04-27T01:03:24.101Z,100576.00
2019-04-27T01:05:54.841Z,100571.00
2019-04-27T01:08:25.238Z,100568.00
2019-04-27T01:10:55.840Z,100573.00
2019-04-27T01:13:29.352Z,100569.00
2019-04-27T01:15:59.718Z,100559.00
2019-04-27T01:18:30.232Z,100563.00
2019-04-27T01:21:00.574Z,100546.00
2019-04-27T01:23:30.963Z,100559.00
2019-04-27T01:26:23.111Z,100553.00
2019-04-27T01:29:03.466Z,100553.00
2019-04-27T01:31:33.971Z,100546.00
2019-04-27T01:34:04.599Z,100548.00
2019-04-27T01:36:35.016Z,100540.00
2019-04-27T01:39:10.263Z,100537.00
2019-04-27T01:41:40.715Z,100538.00
2019-04-27T01:44:11.118Z,100540.00
2019-04-27T01:46:41.566Z,100537.00
2019-04-27T01:49:15.041Z,100524.00
2019-04-27T01:51:45.549Z,100523.00
2019-04-27T01:54:19.275Z,100518.00
2019-04-27T01:56:49.707Z,100515.00
2019-04-27T01:59:20.212Z,100523.00
2019-04-27T02:02:19.190Z,100521.00
2019-04-27T02:05:26.510Z,100532.00
2019-04-27T02:07:56.923Z,100533.00
2019-04-27T02:10:29.124Z,100545.00
2019-04-27T02:12:59.932Z,100531.00
2019-04-27T02:15:30.403Z,100539.00
2019-04-27T02:18:01.035Z,100532.00
2019-04-27T02:20:31.630Z,100540.00
2019-04-27T02:23:04.847Z,100537.00
2019-04-27T02:25:35.770Z,100528.00
2019-04-27T02:28:19.536Z,100534.00
2019-04-27T02:31:09.854Z,100529.00
2019-04-27T02:33:43.825Z,100545.00
2019-04-27T02:36:15.329Z,100542.00
2019-04-27T02:38:46.025Z,100543.00
2019-04-27T02:41:16.631Z,100540.00
2019-04-27T02:44:04.580Z,100546.00
2019-04-27T02:46:35.295Z,100556.00
2019-04-27T02:49:07.123Z,100552.00
2019-04-27T02:51:44.391Z,100551.00
2019-04-27T02:54:15.084Z,100545.00
2019-04-27T02:56:45.577Z,100551.00
2019-04-27T02:59:16.055Z,100540.00
2019-04-27T03:01:55.096Z,100535.00
2019-04-27T03:04:25.631Z,100541.00
2019-04-27T03:06:56.195Z,100538.00
2019-04-27T03:09:26.638Z,100537.00
2019-04-27T03:11:59.483Z,100529.00
2019-04-27T03:14:50.337Z,100534.00
2019-04-27T03:17:41.549Z,100536.00
2019-04-27T03:20:40.299Z,100534.00
2019-04-27T03:23:13.632Z,100528.00
2019-04-27T03:26:05.144Z,100524.00
2019-04-27T03:28:43.912Z,100519.00
2019-04-27T03:31:14.466Z,100526.00
2019-04-27T03:33:44.943Z,100513.00
2019-04-27T03:36:21.184Z,100515.00
2019-04-27T03:38:49.763Z,100512.00
2019-04-27T03:41:20.362Z,100504.00
2019-04-27T03:43:50.655Z,100498.00
2019-04-27T03:46:21.045Z,100504.00
2019-04-27T03:48:51.382Z,100505.00
2019-04-27T03:51:46.680Z,100510.00
2019-04-27T03:54:34.491Z,100507.00
2019-04-27T03:57:11.008Z,100512.00
2019-04-27T04:00:04.940Z,100515.00
2019-04-27T04:02:35.432Z,100513.00
2019-04-27T04:05:09.634Z,100508.00
2019-04-27T04:07:40.477Z,100509.00
2019-04-27T04:10:11.627Z,100508.00
2019-04-27T04:12:57.019Z,100514.00
2019-04-27T04:15:55.170Z,100516.00
2019-04-27T04:18:26.879Z,100515.00
2019-04-27T04:21:00.351Z,100516.00
2019-04-27T04:23:30.181Z,100503.00
2019-04-27T04:26:01.172Z,100503.00
2019-04-27T04:28:31.834Z,100492.00
2019-04-27T04:31:02.508Z,100491.00
2019-04-27T04:33:33.428Z,100498.00
2019-04-27T04:36:06.682Z,100492.00
2019-04-27T04:38:40.088Z,100500.00
2019-04-27T04:41:12.705Z,100497.00
2019-04-27T04:43:52.694Z,100502.00
2019-04-27T04:46:34.470Z,100492.00
2019-04-27T04:49:05.325Z,100490.00
2019-04-27T04:51:36.179Z,100494.00
2019-04-27T04:54:09.379Z,100488.00
2019-04-27T04:56:39.345Z,100489.00
2019-04-27T04:59:10.280Z,100500.00
2019-04-27T05:01:41.360Z,100495.00
2019-04-27T05:04:11.834Z,100498.00
2019-04-27T05:06:42.627Z,100496.00
2019-04-27T05:09:13.677Z,100487.00
2019-04-27T05:11:48.667Z,100507.00
2019-04-27T05:14:20.022Z,100492.00
2019-04-27T05:16:53.633Z,100495.00
2019-04-27T05:19:25.139Z,100500.00
2019-04-27T05:21:56.623Z,100511.00
2019-04-27T05:24:29.100Z,100505.00
2019-04-27T05:27:00.440Z,100500.00
2019-04-27T05:29:31.224Z,100501.00
2019-04-27T05:32:01.872Z,100502.00
2019-04-27T05:34:32.668Z,100505.00
2019-04-27T05:37:05.434Z,100503.00
2019-04-27T05:39:36.184Z,100500.00
2019-04-27T05:42:12.534Z,100501.00
2019-04-27T05:45:35.895Z,100499.00
2019-04-27T05:48:11.390Z,100495.00
2019-04-27T05:50:45.596Z,100501.00
2019-04-27T05:53:14.282Z,100500.00
2019-04-27T05:55:45.535Z,100480.00
2019-04-27T05:58:16.290Z,100495.00
2019-04-27T06:00:49.451Z,100494.00
2019-04-27T06:03:21.058Z,100493.00
2019-04-27T06:05:54.826Z,100494.00
2019-04-27T06:08:25.404Z,100493.00
2019-04-27T06:10:56.192Z,100479.00
2019-04-27T06:13:30.359Z,100478.00
2019-04-27T06:16:00.069Z,100484.00
2019-04-27T06:18:30.897Z,100486.00
2019-04-27T06:21:01.666Z,100478.00
2019-04-27T06:23:32.698Z,100483.00
2019-04-27T06:26:03.558Z,100485.00
2019-04-27T06:28:39.765Z,100480.00
2019-04-27T06:31:10.196Z,100497.00
2019-04-27T06:33:40.809Z,100485.00
2019-04-27T06:36:11.247Z,100479.00
2019-04-27T06:38:43.613Z,100476.00
2019-04-27T06:41:14.539Z,100478.00
2019-04-27T06:43:45.845Z,100480.00
2019-04-27T06:46:16.855Z,100478.00
2019-04-27T06:48:49.465Z,100484.00
2019-04-27T06:51:20.049Z,100473.00
2019-04-27T06:53:51.205Z,100470.00
2019-04-27T06:56:22.334Z,100467.00
2019-04-27T06:58:53.388Z,100453.00
2019-04-27T07:01:24.609Z,100454.00
2019-04-27T07:03:55.911Z,100455.00
2019-04-27T07:06:28.498Z,100444.00
2019-04-27T07:08:59.821Z,100450.00
2019-04-27T07:11:31.422Z,100448.00
2019-04-27T07:14:02.683Z,100453.00
2019-04-27T07:16:33.959Z,100451.00
2019-04-27T07:19:05.025Z,100446.00
2019-04-27T07:21:36.105Z,100450.00
2019-04-27T07:24:06.818Z,100449.00
2019-04-27T07:26:39.107Z,100448.00
2019-04-27T07:29:12.106Z,100454.00
2019-04-27T07:31:42.844Z,100442.00
2019-04-27T07:34:13.573Z,100446.00
2019-04-27T07:36:44.269Z,100443.00
2019-04-27T07:39:14.876Z,100446.00
2019-04-27T07:41:45.726Z,100442.00
2019-04-27T07:44:44.773Z,100443.00
2019-04-27T07:47:19.452Z,100428.00
2019-04-27T07:49:50.798Z,100429.00
2019-04-27T07:52:21.592Z,100435.00
2019-04-27T07:54:52.375Z,100433.00
2019-04-27T07:57:23.526Z,100434.00
2019-04-27T07:59:54.435Z,100429.00
2019-04-27T08:02:25.385Z,100423.00
2019-04-27T08:04:56.712Z,100426.00
2019-04-27T08:07:29.081Z,100421.00
2019-04-27T08:10:01.665Z,100421.00
2019-04-27T08:12:32.737Z,100425.00
2019-04-27T08:15:03.570Z,100418.00
2019-04-27T08:17:34.661Z,100413.00
2019-04-27T08:20:06.286Z,100421.00
2019-04-27T08:22:38.784Z,100425.00
2019-04-27T08:25:10.175Z,100415.00
2019-04-27T08:27:56.997Z,100413.00
2019-04-27T08:30:43.108Z,100416.00
2019-04-27T08:33:14.576Z,100416.00
2019-04-27T08:35:45.501Z,100410.00
2019-04-27T08:38:16.347Z,100411.00
2019-04-27T08:40:47.181Z,100411.00
2019-04-27T08:43:20.137Z,100408.00
2019-04-27T08:45:51.255Z,100405.00
2019-04-27T08:48:34.026Z,100403.00
2019-04-27T08:50:54.733Z,100399.00
2019-04-27T08:53:25.475Z,100400.00
2019-04-27T08:55:56.135Z,100393.00
2019-04-27T08:58:28.478Z,100391.00
2019-04-27T09:01:01.755Z,100395.00
2019-04-27T09:03:32.765Z,100392.00
2019-04-27T09:06:08.947Z,100385.00
2019-04-27T09:08:50.327Z,100385.00
2019-04-27T09:11:40.703Z,100381.00
2019-04-27T09:14:19.199Z,100375.00
2019-04-27T09:17:00.263Z,100373.00
2019-04-27T09:19:41.354Z,100362.00
2019-04-27T09:22:16.093Z,100354.00
2019-04-27T09:24:44.914Z,100358.00
2019-04-27T09:27:17.267Z,100365.00
2019-04-27T09:29:49.799Z,100361.00
2019-04-27T09:32:20.626Z,100363.00
2019-04-27T09:34:51.241Z,100364.00
2019-04-27T09:37:21.800Z,100367.00
2019-04-27T09:39:52.475Z,100355.00
2019-04-27T09:42:23.218Z,100356.00
2019-04-27T09:44:53.736Z,100360.00
2019-04-27T09:47:24.487Z,100355.00
2019-04-27T09:49:56.548Z,100348.00
2019-04-27T09:52:28.658Z,100352.00
2019-04-27T09:54:59.438Z,100339.00
2019-04-27T09:57:29.969Z,100342.00
2019-04-27T10:00:00.983Z,100356.00
2019-04-27T10:02:36.509Z,100344.00
2019-04-27T10:05:08.626Z,100351.00
2019-04-27T10:07:39.976Z,100355.00
2019-04-27T10:10:11.948Z,100349.00
2019-04-27T10:12:42.587Z,100339.00
2019-04-27T10:15:13.496Z,100323.00
2019-04-27T10:17:44.180Z,100335.00
2019-04-27T10:20:16.793Z,100342.00
2019-04-27T10:22:49.897Z,100331.00
2019-04-27T10:25:27.943Z,100340.00
2019-04-27T10:27:58.648Z,100322.00
2019-04-27T10:30:30.244Z,100309.00
2019-04-27T10:33:00.878Z,100316.00
2019-04-27T10:35:33.521Z,100306.00
2019-04-27T10:38:04.242Z,100316.00
2019-04-27T10:40:35.041Z,100306.00
2019-04-27T10:43:06.321Z,100313.00
2019-04-27T10:45:37.894Z,100312.00
2019-04-27T10:48:08.790Z,100309.00
2019-04-27T10:50:39.437Z,100300.00
2019-04-27T10:53:19.825Z,100290.00
2019-04-27T10:55:50.715Z,100291.00
2019-04-27T10:58:21.293Z,100283.00
2019-04-27T11:00:54.423Z,100265.00
2019-04-27T11:03:42.581Z,100282.00
2019-04-27T11:06:47.571Z,100277.00
2019-04-27T11:09:18.179Z,100261.00
2019-04-27T11:11:48.707Z,100263.00
2019-04-27T11:14:19.332Z,100274.00
2019-04-27T11:16:49.920Z,100260.00
2019-04-27T11:19:20.460Z,100255.00
2019-04-27T11:21:50.900Z,100251.00
2019-04-27T11:24:21.386Z,100254.00
2019-04-27T11:26:52.055Z,100260.00
2019-04-27T11:29:22.768Z,100255.00
2019-04-27T11:31:53.498Z,100262.00
2019-04-27T11:34:42.798Z,100254.00
2019-04-27T11:37:14.783Z,100250.00
2019-04-27T11:39:48.669Z,100256.00
2019-04-27T11:42:19.723Z,100249.00
2019-04-27T11:44:50.516Z,100255.00
2019-04-27T11:47:21.161Z,100242.00
2019-04-27T11:49:51.864Z,100240.00
2019-04-27T11:52:22.345Z,100250.00
2019-04-27T11:54:52.817Z,100267.00
2019-04-27T11:57:23.319Z,100259.00
2019-04-27T11:59:56.325Z,100262.00
2019-04-27T12:02:28.067Z,100265.00
2019-04-27T12:04:58.725Z,100258.00
2019-04-27T12:07:29.484Z,100271.00
2019-04-27T12:10:00.263Z,100277.00
2019-04-27T12:12:30.989Z,100266.00
2019-04-27T12:15:01.451Z,100274.00
2019-04-27T12:17:32.237Z,100266.00
2019-04-27T12:20:02.918Z,100270.00
2019-04-27T12:22:33.769Z,100273.00
2019-04-27T12:25:06.522Z,100272.00
2019-04-27T12:27:55.113Z,100270.00
2019-04-27T12:30:40.129Z,100276.00
2019-04-27T12:33:10.876Z,100271.00
2019-04-27T12:35:41.488Z,100267.00
2019-04-27T12:38:12.216Z,100272.00
2019-04-27T12:40:42.882Z,100274.00
2019-04-27T12:43:13.624Z,100281.00
2019-04-27T12:45:45.892Z,100274.00
2019-04-27T12:48:16.412Z,100272.00
2019-04-27T12:50:47.683Z,100265.00
2019-04-27T12:53:30.524Z,100274.00
2019-04-27T12:56:38.018Z,100282.00
2019-04-27T12:59:26.237Z,100288.00
2019-04-27T13:01:57.408Z,100285.00
2019-04-27T13:04:28.571Z,100285.00
2019-04-27T13:06:59.305Z,100286.00
2019-04-27T13:09:30.131Z,100286.00
2019-04-27T13:12:00.883Z,100279.00
2019-04-27T13:14:31.907Z,100273.00
2019-04-27T13:17:02.751Z,100277.00
2019-04-27T13:19:36.635Z,100269.00
2019-04-27T13:22:07.723Z,100274.00
2019-04-27T13:24:45.914Z,100262.00
2019-04-27T13:27:14.080Z,100259.00
2019-04-27T13:29:46.564Z,100265.00
2019-04-27T13:32:20.460Z,100289.00
2019-04-27T13:34:51.179Z,100299.00
2019-04-27T13:37:38.434Z,100313.00
2019-04-27T13:40:10.233Z,100324.00
2019-04-27T13:42:46.947Z,100343.00
2019-04-27T13:45:27.774Z,100341.00
2019-04-27T13:48:15.590Z,100344.00
2019-04-27T13:50:50.144Z,100339.00
2019-04-27T13:53:21.616Z,100337.00
2019-04-27T13:55:52.456Z,100337.00
2019-04-27T13:58:23.485Z,100333.00
2019-04-27T14:00:54.564Z,100349.00
2019-04-27T14:03:25.835Z,100333.00
2019-04-27T14:05:56.976Z,100343.00
2019-04-27T14:08:30.717Z,100340.00
2019-04-27T14:11:01.367Z,100341.00
2019-04-27T14:13:35.323Z,100335.00
2019-04-27T14:16:08.528Z,100339.00
2019-04-27T14:18:39.523Z,100333.00
2019-04-27T14:21:10.378Z,100336.00
2019-04-27T14:23:41.214Z,100337.00
2019-04-27T14:26:12.320Z,100337.00
2019-04-27T14:28:43.359Z,100319.00
2019-04-27T14:31:14.227Z,100330.00
2019-04-27T14:33:44.914Z,100337.00
2019-04-27T14:36:15.829Z,100335.00
2019-04-27T14:38:48.208Z,100334.00
2019-04-27T14:41:19.242Z,100335.00
2019-04-27T14:44:05.286Z,100331.00
2019-04-27T14:46:22.515Z,100319.00
2019-04-27T14:48:53.323Z,100317.00
2019-04-27T14:51:26.105Z,100322.00
2019-04-27T14:53:56.691Z,100315.00
2019-04-27T14:56:29.917Z,100316.00
2019-04-27T14:59:00.677Z,100309.00
2019-04-27T15:01:31.475Z,100322.00
2019-04-27T15:04:02.320Z,100314.00
2019-04-27T15:06:35.142Z,100309.00
2019-04-27T15:09:08.433Z,100315.00
2019-04-27T15:11:38.925Z,100311.00
2019-04-27T15:14:09.760Z,100311.00
2019-04-27T15:16:42.622Z,100318.00
2019-04-27T15:19:19.379Z,100320.00
2019-04-27T15:21:58.738Z,100319.00
2019-04-27T15:24:22.224Z,100324.00
2019-04-27T15:26:58.143Z,100322.00
2019-04-27T15:29:27.009Z,100336.00
2019-04-27T15:32:04.022Z,100333.00
2019-04-27T15:34:52.273Z,100331.00
2019-04-27T15:37:39.231Z,100333.00
2019-04-27T15:40:34.448Z,100330.00
2019-04-27T15:43:22.900Z,100322.00
2019-04-27T15:45:57.658Z,100348.00
2019-04-27T15:48:33.950Z,100366.00
2019-04-27T15:51:05.156Z,100371.00
2019-04-27T15:53:41.181Z,100367.00
2019-04-27T15:56:10.282Z,100379.00
2019-04-27T15:58:41.666Z,100384.00
2019-04-27T16:01:12.530Z,100379.00
2019-04-27T16:03:48.158Z,100385.00
2019-04-27T16:06:21.312Z,100379.00
2019-04-27T16:08:52.213Z,100380.00
2019-04-27T16:11:23.008Z,100389.00
2019-04-27T16:13:53.681Z,100394.00
2019-04-27T16:16:24.614Z,100401.00
2019-04-27T16:18:57.662Z,100391.00
2019-04-27T16:21:31.609Z,100401.00
2019-04-27T16:24:02.500Z,100401.00
2019-04-27T16:26:33.053Z,100401.00
2019-04-27T16:29:03.830Z,100401.00
2019-04-27T16:31:38.471Z,100410.00
2019-04-27T16:34:08.370Z,100410.00
2019-04-27T16:36:43.692Z,100398.00
2019-04-27T16:39:13.120Z,100410.00
2019-04-27T16:41:43.776Z,100408.00
2019-04-27T16:44:14.612Z,100409.00
2019-04-27T16:46:49.323Z,100405.00
2019-04-27T16:49:20.262Z,100409.00
2019-04-27T16:51:51.164Z,100412.00
2019-04-27T16:54:23.449Z,100401.00
2019-04-27T16:57:02.452Z,100408.00
2019-04-27T16:59:40.861Z,100406.00
2019-04-27T17:02:01.676Z,100404.00
2019-04-27T17:04:32.621Z,100405.00
2019-04-27T17:07:03.485Z,100393.00
2019-04-27T17:09:36.221Z,100402.00
2019-04-27T17:12:10.053Z,100398.00
2019-04-27T17:15:05.929Z,100414.00
2019-04-27T17:17:50.830Z,100414.00
2019-04-27T17:20:21.429Z,100413.00
2019-04-27T17:22:53.461Z,100400.00
2019-04-27T17:25:24.711Z,100398.00
2019-04-27T17:28:04.053Z,100406.00
2019-04-27T17:30:39.706Z,100410.00
2019-04-27T17:33:16.254Z,100422.00
2019-04-27T17:35:47.765Z,100422.00
2019-04-27T17:38:18.796Z,100425.00
2019-04-27T17:40:51.769Z,100430.00
2019-04-27T17:43:22.368Z,100440.00
2019-04-27T17:45:53.119Z,100448.00
2019-04-27T17:48:28.758Z,100438.00
2019-04-27T17:51:02.609Z,100460.00
2019-04-27T17:53:33.093Z,100452.00
2019-04-27T17:56:05.936Z,100468.00
2019-04-27T17:58:39.668Z,100470.00
2019-04-27T18:01:13.955Z,100475.00
2019-04-27T18:03:43.952Z,100476.00
2019-04-27T18:06:14.519Z,100472.00
2019-04-27T18:08:45.199Z,100478.00
2019-04-27T18:11:16.061Z,100476.00
2019-04-27T18:13:48.751Z,100476.00
2019-04-27T18:16:19.410Z,100476.00
2019-04-27T18:19:11.712Z,100478.00
2019-04-27T18:22:00.527Z,100479.00
2019-04-27T18:24:43.984Z,100474.00
2019-04-27T18:27:49.637Z,100477.00
2019-04-27T18:30:38.688Z,100480.00
2019-04-27T18:33:07.884Z,100482.00
2019-04-27T18:35:38.709Z,100475.00
2019-04-27T18:38:09.228Z,100485.00
2019-04-27T18:40:40.085Z,100486.00
2019-04-27T18:43:12.363Z,100494.00
2019-04-27T18:45:45.001Z,100486.00
2019-04-27T18:48:25.420Z,100487.00
2019-04-27T18:51:05.250Z,100509.00
2019-04-27T18:53:35.585Z,100503.00
2019-04-27T18:56:10.128Z,100515.00
2019-04-27T18:58:37.824Z,100518.00
2019-04-27T19:01:08.651Z,100523.00
2019-04-27T19:03:39.162Z,100512.00
2019-04-27T19:06:09.616Z,100511.00
2019-04-27T19:08:40.012Z,100512.00
2019-04-27T19:11:10.459Z,100518.00
2019-04-27T19:13:40.856Z,100528.00
2019-04-27T19:16:11.559Z,100531.00
2019-04-27T19:18:42.146Z,100530.00
2019-04-27T19:21:12.622Z,100533.00
2019-04-27T19:23:43.417Z,100532.00
2019-04-27T19:26:25.585Z,100533.00
2019-04-27T19:29:20.832Z,100541.00
2019-04-27T19:31:58.519Z,100528.00
2019-04-27T19:34:29.255Z,100537.00
2019-04-27T19:37:00.072Z,100531.00
2019-04-27T19:39:33.371Z,100545.00
2019-04-27T19:42:06.312Z,100547.00
2019-04-27T19:44:39.827Z,100543.00
2019-04-27T19:47:10.575Z,100537.00
2019-04-27T19:49:41.177Z,100556.00
2019-04-27T19:52:11.803Z,100550.00
2019-04-27T19:54:42.309Z,100562.00
2019-04-27T19:57:12.851Z,100563.00
2019-04-27T19:59:48.977Z,100567.00
2019-04-27T20:02:21.297Z,100561.00
2019-04-27T20:04:58.134Z,100555.00
2019-04-27T20:07:28.700Z,100564.00
2019-04-27T20:10:00.437Z,100553.00
2019-04-27T20:12:31.430Z,100568.00
2019-04-27T20:15:02.437Z,100567.00
2019-04-27T20:17:33.637Z,100559.00
2019-04-27T20:20:05.158Z,100555.00
2019-04-27T20:22:35.658Z,100567.00
2019-04-27T20:25:06.912Z,100568.00
2019-04-27T20:27:46.204Z,100559.00
2019-04-27T20:30:12.238Z,100568.00
2019-04-27T20:32:42.840Z,100562.00
2019-04-27T20:35:13.252Z,100560.00
2019-04-27T20:37:43.687Z,100563.00
2019-04-27T20:40:14.933Z,100568.00
2019-04-27T20:42:45.655Z,100566.00
2019-04-27T20:45:16.297Z,100563.00
2019-04-27T20:47:47.154Z,100563.00
2019-04-27T20:50:17.582Z,100562.00
2019-04-27T20:52:55.945Z,100566.00
2019-04-27T20:55:26.859Z,100575.00
2019-04-27T20:58:02.623Z,100568.00
2019-04-27T21:00:32.547Z,100570.00
2019-04-27T21:03:32.569Z,100568.00
2019-04-27T21:06:21.176Z,100567.00
2019-04-27T21:08:51.679Z,100562.00
2019-04-27T21:11:22.155Z,100575.00
2019-04-27T21:13:53.637Z,100571.00
2019-04-27T21:16:24.801Z,100562.00
2019-04-27T21:18:55.250Z,100572.00
2019-04-27T21:21:25.708Z,100571.00
2019-04-27T21:23:56.197Z,100577.00
2019-04-27T21:26:26.600Z,100568.00
2019-04-27T21:28:57.092Z,100573.00
2019-04-27T21:31:28.577Z,100566.00
2019-04-27T21:33:59.250Z,100580.00
2019-04-27T21:36:31.618Z,100583.00
2019-04-27T21:39:02.241Z,100574.00
2019-04-27T21:41:32.718Z,100587.00
2019-04-27T21:44:03.227Z,100592.00
2019-04-27T21:46:34.917Z,100599.00
2019-04-27T21:49:05.386Z,100597.00
2019-04-27T21:51:57.263Z,100597.00
2019-04-27T21:54:28.220Z,100603.00
2019-04-27T21:56:58.681Z,100599.00
2019-04-27T21:59:29.089Z,100604.00
2019-04-27T22:02:02.251Z,100602.00
2019-04-27T22:04:33.322Z,100596.00
2019-04-27T22:07:03.903Z,100600.00
2019-04-27T22:09:34.363Z,100602.00
2019-04-27T22:12:05.067Z,100616.00
2019-04-27T22:14:35.523Z,100616.00
2019-04-27T22:17:06.153Z,100618.00
2019-04-27T22:19:36.580Z,100604.00
2019-04-27T22:22:12.567Z,100608.00
2019-04-27T22:24:43.370Z,100616.00
2019-04-27T22:27:14.075Z,100617.00
2019-04-27T22:29:44.602Z,100616.00
2019-04-27T22:32:15.054Z,100622.00
2019-04-27T22:34:46.002Z,100625.00
2019-04-27T22:37:16.366Z,100626.00
2019-04-27T22:40:05.017Z,100621.00
2019-04-27T22:42:45.710Z,100617.00
2019-04-27T22:45:20.334Z,100628.00
2019-04-27T22:47:51.259Z,100640.00
2019-04-27T22:50:24.737Z,100635.00
2019-04-27T22:52:55.134Z,100646.00
2019-04-27T22:55:25.537Z,100642.00
2019-04-27T22:58:01.711Z,100635.00
2019-04-27T23:00:51.198Z,100640.00
2019-04-27T23:03:25.128Z,100635.00
2019-04-27T23:05:55.579Z,100639.00
2019-04-27T23:08:27.153Z,100640.00
2019-04-27T23:10:57.634Z,100644.00
2019-04-27T23:13:28.102Z,100643.00
2019-04-27T23:16:01.488Z,100641.00
2019-04-27T23:18:38.520Z,100650.00
2019-04-27T23:21:08.940Z,100642.00
2019-04-27T23:23:41.215Z,100640.00
2019-04-27T23:26:11.976Z,100643.00
2019-04-27T23:28:42.601Z,100646.00
2019-04-27T23:31:40.692Z,100651.00
2019-04-27T23:34:11.742Z,100653.00
2019-04-27T23:36:45.337Z,100653.00
2019-04-27T23:39:16.519Z,100655.00
2019-04-27T23:41:48.961Z,100651.00
2019-04-27T23:44:19.421Z,100647.00
2019-04-27T23:46:50.255Z,100660.00
2019-04-27T23:49:21.002Z,100655.00
2019-04-27T23:52:16.353Z,100662.00
2019-04-27T23:54:46.888Z,100665.00
2019-04-27T23:57:21.764Z,100668.00
2019-04-27T23:59:52.283Z,100674.00
